createdAt,value
2023-03-25T00:01:18.731Z,41.77
2023-03-25T00:03:47.076Z,41.74
2023-03-25T00:06:15.675Z,41.66
2023-03-25T00:08:44.242Z,41.70
2023-03-25T00:11:13.809Z,41.69
2023-03-25T00:13:42.571Z,41.74
2023-03-25T00:16:11.264Z,41.75
2023-03-25T00:18:39.835Z,41.74
2023-03-25T00:21:09.372Z,41.93
2023-03-25T00:23:39.785Z,41.97
2023-03-25T00:26:09.321Z,42.13
2023-03-25T00:28:38.876Z,42.14
2023-03-25T00:31:11.920Z,42.15
2023-03-25T00:33:40.690Z,42.23
2023-03-25T00:36:10.597Z,42.31
2023-03-25T00:38:40.259Z,42.35
2023-03-25T00:41:35.023Z,42.45
2023-03-25T00:44:05.012Z,42.51
2023-03-25T00:46:34.613Z,42.60
2023-03-25T00:49:03.135Z,42.71
2023-03-25T00:51:31.853Z,42.84
2023-03-25T00:54:00.965Z,42.89
2023-03-25T00:56:30.641Z,42.90
2023-03-25T00:59:01.433Z,43.05
2023-03-25T01:03:44.376Z,43.15
2023-03-25T01:06:15.359Z,43.15
2023-03-25T01:08:45.306Z,43.24
2023-03-25T01:11:23.070Z,43.24
2023-03-25T01:13:52.262Z,43.33
2023-03-25T01:16:21.358Z,43.42
2023-03-25T01:18:50.111Z,43.54
2023-03-25T01:21:19.264Z,43.46
2023-03-25T01:23:49.436Z,43.58
2023-03-25T01:26:18.369Z,43.64
2023-03-25T01:28:47.983Z,43.71
2023-03-25T01:31:16.185Z,43.61
2023-03-25T01:33:44.550Z,43.67
2023-03-25T01:36:14.064Z,43.77
2023-03-25T01:38:42.938Z,43.78
2023-03-25T01:41:11.506Z,43.92
2023-03-25T01:43:39.947Z,44.00
2023-03-25T01:46:12.872Z,44.08
2023-03-25T01:48:44.272Z,44.14
2023-03-25T01:51:20.179Z,44.24
2023-03-25T01:53:50.682Z,44.22
2023-03-25T01:56:24.341Z,44.28
2023-03-25T01:58:54.322Z,44.33
2023-03-25T02:01:22.543Z,44.34
2023-03-25T02:03:52.030Z,44.46
2023-03-25T02:06:34.530Z,44.46
2023-03-25T02:09:05.171Z,44.59
2023-03-25T02:11:33.956Z,44.48
2023-03-25T02:14:10.606Z,44.48
2023-03-25T02:17:24.207Z,44.50
2023-03-25T02:20:38.718Z,44.63
2023-03-25T02:23:16.653Z,44.65
2023-03-25T02:26:11.711Z,44.60
2023-03-25T02:28:50.570Z,44.65
2023-03-25T02:31:38.316Z,44.71
2023-03-25T02:34:17.249Z,44.72
2023-03-25T02:37:14.804Z,44.77
2023-03-25T02:39:50.148Z,44.82
2023-03-25T02:42:34.931Z,44.83
2023-03-25T02:45:21.356Z,44.84
2023-03-25T02:47:56.643Z,45.00
2023-03-25T02:50:34.688Z,45.04
2023-03-25T02:53:09.321Z,45.07
2023-03-25T02:55:38.286Z,45.09
2023-03-25T02:58:10.822Z,45.11
2023-03-25T03:00:39.890Z,45.10
2023-03-25T03:03:09.113Z,45.20
2023-03-25T03:05:43.019Z,45.25
2023-03-25T03:08:49.511Z,45.29
2023-03-25T03:11:34.983Z,45.41
2023-03-25T03:14:21.299Z,45.38
2023-03-25T03:16:59.791Z,45.50
2023-03-25T03:19:53.706Z,45.52
2023-03-25T03:22:45.613Z,45.52
2023-03-25T03:25:28.020Z,45.56
2023-03-25T03:28:06.605Z,45.60
2023-03-25T03:30:45.671Z,45.59
2023-03-25T03:33:40.892Z,45.60
2023-03-25T03:36:12.896Z,45.66
2023-03-25T03:38:49.223Z,45.67
2023-03-25T03:41:24.970Z,45.53
2023-03-25T03:44:04.959Z,45.55
2023-03-25T03:46:50.275Z,45.55
2023-03-25T03:49:23.614Z,45.51
2023-03-25T03:52:23.602Z,45.56
2023-03-25T03:55:01.072Z,45.37
2023-03-25T03:57:39.094Z,45.49
2023-03-25T04:00:29.851Z,45.49
2023-03-25T04:03:09.958Z,45.42
2023-03-25T04:06:02.178Z,45.47
2023-03-25T04:08:47.496Z,45.45
2023-03-25T04:11:24.890Z,45.39
2023-03-25T04:13:58.706Z,45.48
2023-03-25T04:16:27.903Z,45.40
2023-03-25T04:18:56.183Z,45.41
2023-03-25T04:21:25.148Z,45.39
2023-03-25T04:23:53.337Z,45.33
2023-03-25T04:26:21.573Z,45.43
2023-03-25T04:28:50.896Z,45.42
2023-03-25T04:31:19.534Z,45.36
2023-03-25T04:33:48.421Z,45.47
2023-03-25T04:36:17.294Z,45.41
2023-03-25T04:38:45.850Z,45.28
2023-03-25T04:41:14.170Z,45.25
2023-03-25T04:43:42.865Z,45.34
2023-03-25T04:46:15.966Z,45.33
2023-03-25T04:48:44.924Z,45.31
2023-03-25T04:51:15.313Z,45.27
2023-03-25T04:53:45.308Z,45.28
2023-03-25T04:56:17.428Z,45.31
2023-03-25T04:58:46.587Z,45.36
2023-03-25T05:01:28.524Z,45.40
2023-03-25T05:04:02.727Z,45.33
2023-03-25T05:06:35.520Z,45.38
2023-03-25T05:09:06.054Z,45.42
2023-03-25T05:11:36.605Z,45.45
2023-03-25T05:14:15.377Z,45.47
2023-03-25T05:16:44.721Z,45.49
2023-03-25T05:19:14.051Z,45.55
2023-03-25T05:21:43.274Z,45.63
2023-03-25T05:24:13.908Z,45.68
2023-03-25T05:26:43.090Z,45.66
2023-03-25T05:29:14.409Z,45.80
2023-03-25T05:31:44.874Z,45.87
2023-03-25T05:34:13.717Z,45.90
2023-03-25T05:36:42.967Z,45.98
2023-03-25T05:39:12.283Z,46.07
2023-03-25T05:41:41.705Z,46.12
2023-03-25T05:44:10.846Z,46.21
2023-03-25T05:46:39.499Z,46.20
2023-03-25T05:49:07.581Z,46.32
2023-03-25T05:51:36.258Z,46.28
2023-03-25T05:54:06.901Z,46.30
2023-03-25T05:56:34.949Z,46.39
2023-03-25T05:59:04.324Z,46.40
2023-03-25T06:01:33.541Z,46.52
2023-03-25T06:04:05.303Z,46.59
2023-03-25T06:06:34.877Z,46.66
2023-03-25T06:09:04.911Z,46.73
2023-03-25T06:11:34.446Z,46.70
2023-03-25T06:14:05.267Z,46.75
2023-03-25T06:16:33.560Z,46.88
2023-03-25T06:19:02.293Z,46.78
2023-03-25T06:21:33.886Z,46.82
2023-03-25T06:24:03.528Z,46.78
2023-03-25T06:26:33.021Z,46.72
2023-03-25T06:29:02.386Z,46.65
2023-03-25T06:31:30.854Z,46.63
2023-03-25T06:34:00.346Z,46.61
2023-03-25T06:36:29.137Z,46.52
2023-03-25T06:38:59.291Z,46.31
2023-03-25T06:41:27.969Z,45.55
2023-03-25T06:43:57.365Z,44.57
2023-03-25T06:46:25.726Z,43.19
2023-03-25T06:48:54.621Z,41.08
2023-03-25T06:51:23.250Z,39.32
2023-03-25T06:53:52.382Z,38.19
2023-03-25T06:56:21.166Z,37.24
2023-03-25T06:58:49.978Z,36.69
2023-03-25T07:01:19.169Z,35.50
2023-03-25T07:03:47.570Z,34.25
2023-03-25T07:06:22.407Z,32.85
2023-03-25T07:08:51.368Z,31.52
2023-03-25T07:11:27.117Z,29.93
2023-03-25T07:13:55.501Z,28.52
2023-03-25T07:16:24.445Z,27.48
2023-03-25T07:18:54.355Z,26.42
2023-03-25T07:21:23.295Z,25.09
2023-03-25T07:23:53.481Z,24.37
2023-03-25T07:26:22.630Z,24.56
2023-03-25T07:28:51.054Z,24.17
2023-03-25T07:31:19.190Z,24.14
2023-03-25T07:33:47.846Z,23.03
2023-03-25T07:36:15.964Z,22.40
2023-03-25T07:38:45.406Z,21.46
2023-03-25T07:41:14.706Z,20.59
2023-03-25T07:43:42.925Z,19.65
2023-03-25T07:46:11.064Z,19.17
2023-03-25T07:48:39.707Z,18.44
2023-03-25T07:51:08.667Z,17.82
2023-03-25T07:53:36.870Z,17.03
2023-03-25T07:56:07.296Z,16.56
2023-03-25T07:58:35.493Z,16.39
2023-03-25T08:01:05.231Z,15.78
2023-03-25T08:03:34.644Z,15.32
2023-03-25T08:06:03.706Z,14.89
2023-03-25T08:08:32.916Z,14.36
2023-03-25T08:11:01.203Z,13.98
2023-03-25T08:13:30.430Z,13.77
2023-03-25T08:15:59.073Z,13.62
2023-03-25T08:18:27.563Z,13.37
2023-03-25T08:20:56.524Z,13.11
2023-03-25T08:23:24.671Z,13.11
2023-03-25T08:25:53.754Z,12.99
2023-03-25T08:28:23.005Z,12.96
2023-03-25T08:30:52.649Z,12.78
2023-03-25T08:33:22.611Z,12.55
2023-03-25T08:35:50.921Z,12.31
2023-03-25T08:38:19.920Z,12.03
2023-03-25T08:40:49.179Z,12.10
2023-03-25T08:43:17.551Z,11.94
2023-03-25T08:45:45.849Z,12.07
2023-03-25T08:48:14.837Z,11.95
2023-03-25T08:50:43.002Z,12.28
2023-03-25T08:53:11.228Z,12.52
2023-03-25T08:55:40.048Z,12.62
2023-03-25T08:58:08.391Z,12.45
2023-03-25T09:00:37.445Z,12.35
2023-03-25T09:03:05.985Z,12.43
2023-03-25T09:05:36.812Z,13.27
2023-03-25T09:08:06.411Z,13.98
2023-03-25T09:10:36.611Z,14.08
2023-03-25T09:13:06.264Z,15.17
2023-03-25T09:15:34.439Z,15.79
2023-03-25T09:18:03.510Z,16.83
2023-03-25T09:20:31.919Z,18.14
2023-03-25T09:23:00.522Z,19.72
2023-03-25T09:25:28.641Z,21.07
2023-03-25T09:27:56.908Z,22.48
2023-03-25T09:30:25.350Z,23.55
2023-03-25T09:32:54.170Z,24.36
2023-03-25T09:35:22.810Z,24.80
2023-03-25T09:37:52.396Z,24.97
2023-03-25T09:40:22.610Z,25.24
2023-03-25T09:43:16.071Z,25.68
2023-03-25T09:45:47.349Z,26.03
2023-03-25T09:48:31.357Z,26.26
2023-03-25T09:51:05.431Z,26.93
2023-03-25T09:53:55.881Z,26.92
2023-03-25T09:56:28.896Z,27.04
2023-03-25T09:59:10.690Z,27.81
2023-03-25T10:01:52.287Z,28.73
2023-03-25T10:04:39.775Z,29.13
2023-03-25T10:07:32.881Z,29.63
2023-03-25T10:10:13.044Z,30.12
2023-03-25T10:12:59.098Z,30.39
2023-03-25T10:15:53.885Z,30.80
2023-03-25T10:18:53.183Z,31.10
2023-03-25T10:21:48.762Z,31.66
2023-03-25T10:24:39.598Z,31.75
2023-03-25T10:27:23.425Z,32.07
2023-03-25T10:30:19.168Z,32.53
2023-03-25T10:32:54.810Z,32.90
2023-03-25T10:35:29.664Z,33.35
2023-03-25T10:38:19.904Z,33.86
2023-03-25T10:41:13.218Z,33.86
2023-03-25T10:43:43.647Z,33.98
2023-03-25T10:46:29.029Z,34.13
2023-03-25T10:48:58.734Z,34.10
2023-03-25T10:51:31.289Z,34.06
2023-03-25T10:54:00.902Z,34.37
2023-03-25T10:56:41.222Z,34.47
2023-03-25T10:59:35.645Z,34.90
2023-03-25T11:02:14.638Z,35.20
2023-03-25T11:04:46.108Z,34.85
2023-03-25T11:07:24.040Z,34.44
2023-03-25T11:09:53.126Z,33.60
2023-03-25T11:12:33.176Z,33.46
2023-03-25T11:15:06.800Z,33.31
2023-03-25T11:17:35.656Z,33.25
2023-03-25T11:20:17.138Z,33.52
2023-03-25T11:22:50.463Z,33.26
2023-03-25T11:25:24.881Z,33.46
2023-03-25T11:27:57.351Z,33.62
2023-03-25T11:30:26.489Z,33.80
2023-03-25T11:33:25.457Z,34.13
2023-03-25T11:35:54.685Z,34.05
2023-03-25T11:38:29.866Z,33.95
2023-03-25T11:40:59.850Z,34.24
2023-03-25T11:43:35.794Z,34.32
2023-03-25T11:46:13.280Z,35.07
2023-03-25T11:48:43.869Z,36.02
2023-03-25T11:51:33.452Z,36.42
2023-03-25T11:54:06.195Z,36.64
2023-03-25T11:56:39.007Z,36.77
2023-03-25T11:59:26.120Z,36.50
2023-03-25T12:02:03.971Z,36.26
2023-03-25T12:04:32.753Z,35.83
2023-03-25T12:07:09.140Z,35.93
2023-03-25T12:09:37.391Z,35.53
2023-03-25T12:12:18.459Z,35.99
2023-03-25T12:14:46.741Z,36.18
2023-03-25T12:17:56.729Z,36.62
2023-03-25T12:20:34.771Z,36.93
2023-03-25T12:23:40.258Z,37.56
2023-03-25T12:26:11.100Z,38.11
2023-03-25T12:29:12.895Z,38.03
2023-03-25T12:32:11.476Z,37.80
2023-03-25T12:35:07.814Z,37.41
2023-03-25T12:38:03.957Z,37.13
2023-03-25T12:40:41.808Z,37.65
2023-03-25T12:43:23.895Z,38.18
2023-03-25T12:46:44.806Z,38.28
2023-03-25T12:49:50.618Z,39.00
2023-03-25T12:52:39.405Z,39.27
2023-03-25T12:55:29.427Z,39.41
2023-03-25T12:58:24.731Z,39.97
2023-03-25T13:01:24.107Z,40.36
2023-03-25T13:04:17.286Z,40.71
2023-03-25T13:06:57.061Z,41.31
2023-03-25T13:09:28.946Z,41.42
2023-03-25T13:12:23.750Z,41.42
2023-03-25T13:14:57.601Z,41.27
2023-03-25T13:17:33.648Z,40.68
2023-03-25T13:20:04.337Z,40.91
2023-03-25T13:22:36.620Z,41.23
2023-03-25T13:25:11.041Z,41.13
2023-03-25T13:27:41.322Z,40.64
2023-03-25T13:30:35.701Z,40.63
2023-03-25T13:33:37.370Z,40.53
2023-03-25T13:36:15.751Z,40.78
2023-03-25T13:38:51.504Z,41.22
2023-03-25T13:41:44.489Z,41.90
2023-03-25T13:44:29.390Z,42.18
2023-03-25T13:47:17.661Z,42.01
2023-03-25T13:50:00.170Z,41.55
2023-03-25T13:52:38.101Z,41.83
2023-03-25T13:55:18.191Z,42.15
2023-03-25T13:58:08.410Z,42.45
2023-03-25T14:01:04.006Z,42.08
2023-03-25T14:03:58.352Z,41.29
2023-03-25T14:06:35.954Z,41.05
2023-03-25T14:09:26.154Z,40.39
2023-03-25T14:12:24.459Z,40.55
2023-03-25T14:15:12.611Z,40.55
2023-03-25T14:17:43.737Z,40.61
2023-03-25T14:20:20.963Z,40.35
2023-03-25T14:22:54.631Z,39.62
2023-03-25T14:25:33.181Z,39.41
2023-03-25T14:28:02.223Z,39.08
2023-03-25T14:30:32.562Z,38.80
2023-03-25T14:33:01.619Z,38.76
2023-03-25T14:35:33.070Z,38.45
2023-03-25T14:38:07.670Z,38.53
2023-03-25T14:40:50.671Z,38.79
2023-03-25T14:43:31.002Z,38.67
2023-03-25T14:46:14.180Z,38.32
2023-03-25T14:48:44.240Z,38.33
2023-03-25T14:51:27.466Z,37.91
2023-03-25T14:54:04.878Z,38.27
2023-03-25T14:56:36.326Z,38.17
2023-03-25T14:59:21.390Z,37.82
2023-03-25T15:01:51.402Z,37.66
2023-03-25T15:04:39.569Z,37.71
2023-03-25T15:07:18.118Z,37.26
2023-03-25T15:09:52.675Z,36.83
2023-03-25T15:12:26.007Z,36.53
2023-03-25T15:15:07.924Z,36.39
2023-03-25T15:17:43.973Z,36.65
2023-03-25T15:20:28.325Z,36.69
2023-03-25T15:23:19.847Z,36.58
2023-03-25T15:25:54.024Z,36.71
2023-03-25T15:28:31.361Z,36.76
2023-03-25T15:31:08.541Z,37.31
2023-03-25T15:33:54.240Z,37.39
2023-03-25T15:36:44.195Z,37.06
2023-03-25T15:39:44.551Z,37.28
2023-03-25T15:42:42.864Z,36.75
2023-03-25T15:45:36.703Z,36.69
2023-03-25T15:48:37.970Z,36.49
2023-03-25T15:51:14.645Z,36.70
2023-03-25T15:54:03.698Z,36.89
2023-03-25T15:56:37.291Z,36.61
2023-03-25T15:59:27.567Z,36.20
2023-03-25T16:01:56.764Z,36.32
2023-03-25T16:04:32.447Z,36.21
2023-03-25T16:07:03.677Z,35.88
2023-03-25T16:09:33.219Z,35.63
2023-03-25T16:12:03.960Z,35.97
2023-03-25T16:14:34.401Z,36.30
2023-03-25T16:17:08.008Z,36.54
2023-03-25T16:19:45.950Z,36.59
2023-03-25T16:22:50.794Z,36.82
2023-03-25T16:25:32.055Z,36.75
2023-03-25T16:28:02.861Z,36.66
2023-03-25T16:30:41.368Z,36.88
2023-03-25T16:33:15.626Z,37.12
2023-03-25T16:35:49.571Z,37.37
2023-03-25T16:38:23.046Z,37.74
2023-03-25T16:40:59.580Z,38.20
2023-03-25T16:43:30.498Z,38.61
2023-03-25T16:46:04.038Z,38.66
2023-03-25T16:48:42.162Z,38.64
2023-03-25T16:51:22.479Z,38.66
2023-03-25T16:53:54.578Z,38.84
2023-03-25T16:56:32.548Z,39.22
2023-03-25T16:59:08.252Z,39.78
2023-03-25T17:01:39.574Z,40.08
2023-03-25T17:04:16.718Z,40.83
2023-03-25T17:07:00.605Z,41.03
2023-03-25T17:09:32.205Z,41.22
2023-03-25T17:12:03.318Z,41.35
2023-03-25T17:14:33.528Z,41.19
2023-03-25T17:17:09.471Z,41.15
2023-03-25T17:19:48.457Z,40.90
2023-03-25T17:22:35.108Z,40.95
2023-03-25T17:25:35.698Z,41.00
2023-03-25T17:28:24.211Z,40.88
2023-03-25T17:30:52.718Z,41.38
2023-03-25T17:33:33.855Z,41.66
2023-03-25T17:36:03.788Z,41.76
2023-03-25T17:38:36.517Z,41.48
2023-03-25T17:41:08.576Z,41.57
2023-03-25T17:43:55.347Z,41.51
2023-03-25T17:46:29.495Z,41.52
2023-03-25T17:48:59.305Z,41.28
2023-03-25T17:51:30.202Z,41.48
2023-03-25T17:54:00.257Z,41.73
2023-03-25T17:56:29.157Z,42.11
2023-03-25T17:59:03.833Z,42.16
2023-03-25T18:01:32.842Z,42.18
2023-03-25T18:04:01.187Z,42.51
2023-03-25T18:06:29.537Z,42.90
2023-03-25T18:08:58.151Z,43.22
2023-03-25T18:11:26.511Z,43.74
2023-03-25T18:13:55.031Z,44.20
2023-03-25T18:16:23.385Z,44.62
2023-03-25T18:18:51.611Z,45.09
2023-03-25T18:21:19.949Z,45.42
2023-03-25T18:23:48.092Z,45.76
2023-03-25T18:26:19.719Z,46.03
2023-03-25T18:28:48.747Z,46.21
2023-03-25T18:31:17.342Z,46.32
2023-03-25T18:33:50.215Z,46.33
2023-03-25T18:36:18.852Z,46.54
2023-03-25T18:38:47.953Z,46.71
2023-03-25T18:41:16.498Z,46.70
2023-03-25T18:43:44.959Z,46.56
2023-03-25T18:46:14.422Z,46.59
2023-03-25T18:48:44.006Z,46.48
2023-03-25T18:51:13.852Z,46.51
2023-03-25T18:53:42.384Z,46.62
2023-03-25T18:56:10.892Z,46.47
2023-03-25T18:58:39.153Z,46.47
2023-03-25T19:01:08.056Z,46.43
2023-03-25T19:03:37.164Z,46.25
2023-03-25T19:06:08.772Z,46.18
2023-03-25T19:08:37.501Z,46.18
2023-03-25T19:11:19.121Z,46.13
2023-03-25T19:13:50.665Z,46.16
2023-03-25T19:16:19.855Z,46.18
2023-03-25T19:18:48.734Z,46.11
2023-03-25T19:21:18.844Z,46.24
2023-03-25T19:23:47.535Z,46.25
2023-03-25T19:26:15.770Z,46.19
2023-03-25T19:28:44.174Z,46.34
2023-03-25T19:31:14.251Z,46.42
2023-03-25T19:33:42.992Z,46.53
2023-03-25T19:36:17.000Z,46.66
2023-03-25T19:38:45.349Z,46.62
2023-03-25T19:41:15.203Z,46.57
2023-03-25T19:43:43.615Z,46.57
2023-03-25T19:46:12.160Z,46.62
2023-03-25T19:48:41.031Z,46.77
2023-03-25T19:51:09.148Z,46.80
2023-03-25T19:53:37.321Z,46.80
2023-03-25T19:56:05.983Z,46.87
2023-03-25T19:58:34.952Z,46.89
2023-03-25T20:01:03.391Z,46.89
2023-03-25T20:03:31.706Z,46.87
2023-03-25T20:06:01.644Z,46.90
2023-03-25T20:08:30.541Z,47.02
2023-03-25T20:10:59.561Z,47.01
2023-03-25T20:13:28.105Z,47.05
2023-03-25T20:15:56.281Z,46.89
2023-03-25T20:18:24.794Z,47.06
2023-03-25T20:20:53.365Z,47.09
2023-03-25T20:23:21.486Z,47.11
2023-03-25T20:25:50.883Z,47.40
2023-03-25T20:28:19.915Z,47.49
2023-03-25T20:30:48.042Z,47.67
2023-03-25T20:33:16.547Z,47.66
2023-03-25T20:35:45.751Z,47.70
2023-03-25T20:38:14.975Z,47.63
2023-03-25T20:40:44.913Z,47.67
2023-03-25T20:43:14.558Z,47.91
2023-03-25T20:45:43.601Z,47.95
2023-03-25T20:48:15.156Z,47.78
2023-03-25T20:50:45.299Z,47.95
2023-03-25T20:53:14.182Z,47.94
2023-03-25T20:55:42.397Z,48.14
2023-03-25T20:58:10.642Z,48.17
2023-03-25T21:00:43.504Z,48.12
2023-03-25T21:03:12.010Z,48.13
2023-03-25T21:05:41.201Z,48.25
2023-03-25T21:08:09.465Z,48.20
2023-03-25T21:10:38.386Z,48.17
2023-03-25T21:13:06.908Z,48.15
2023-03-25T21:15:37.808Z,48.07
2023-03-25T21:18:07.870Z,48.18
2023-03-25T21:20:36.864Z,48.29
2023-03-25T21:23:05.100Z,48.49
2023-03-25T21:25:33.671Z,48.67
2023-03-25T21:28:03.753Z,48.77
2023-03-25T21:30:32.417Z,48.80
2023-03-25T21:33:00.937Z,49.13
2023-03-25T21:35:29.642Z,49.50
2023-03-25T21:37:57.847Z,49.48
2023-03-25T21:40:26.262Z,49.60
2023-03-25T21:43:08.397Z,49.86
2023-03-25T21:45:36.841Z,50.16
2023-03-25T21:48:05.131Z,50.60
2023-03-25T21:50:33.480Z,50.88
2023-03-25T21:53:01.676Z,51.15
2023-03-25T21:55:30.422Z,51.38
2023-03-25T21:57:59.056Z,51.63
2023-03-25T22:00:27.256Z,52.00
2023-03-25T22:02:55.440Z,52.28
2023-03-25T22:05:23.664Z,52.58
2023-03-25T22:07:51.838Z,52.63
2023-03-25T22:10:20.031Z,52.60
2023-03-25T22:12:49.934Z,52.45
2023-03-25T22:15:18.253Z,52.32
2023-03-25T22:17:46.427Z,52.42
2023-03-25T22:20:15.323Z,52.46
2023-03-25T22:22:43.578Z,52.52
2023-03-25T22:25:12.853Z,52.33
2023-03-25T22:27:41.210Z,52.29
2023-03-25T22:30:10.201Z,52.31
2023-03-25T22:32:38.593Z,52.26
2023-03-25T22:35:07.558Z,52.22
2023-03-25T22:37:35.882Z,52.22
2023-03-25T22:40:04.282Z,52.23
2023-03-25T22:42:32.501Z,52.27
2023-03-25T22:45:00.998Z,52.44
2023-03-25T22:47:29.539Z,52.39
2023-03-25T22:49:57.810Z,52.49
2023-03-25T22:52:25.873Z,52.48
2023-03-25T22:54:54.158Z,52.61
2023-03-25T22:57:22.384Z,52.91
2023-03-25T22:59:51.268Z,53.34
2023-03-25T23:02:19.840Z,53.65
2023-03-25T23:04:48.110Z,54.05
2023-03-25T23:07:16.846Z,54.24
2023-03-25T23:09:45.064Z,54.42
2023-03-25T23:12:17.426Z,54.62
2023-03-25T23:14:50.740Z,54.79
2023-03-25T23:17:19.216Z,54.90
2023-03-25T23:19:47.378Z,54.90
2023-03-25T23:22:15.952Z,54.92
2023-03-25T23:24:44.200Z,54.89
2023-03-25T23:27:13.319Z,54.86
2023-03-25T23:29:41.598Z,54.86
2023-03-25T23:32:10.679Z,54.97
2023-03-25T23:34:38.884Z,54.95
2023-03-25T23:37:08.228Z,54.83
2023-03-25T23:39:37.788Z,54.92
2023-03-25T23:42:05.960Z,54.81
2023-03-25T23:44:34.087Z,54.76
2023-03-25T23:47:02.707Z,54.71
2023-03-25T23:49:31.029Z,54.49
2023-03-25T23:52:00.211Z,54.22
2023-03-25T23:54:28.626Z,54.05
2023-03-25T23:56:57.087Z,53.84
2023-03-25T23:59:25.272Z,53.84
